Hlavní strana
METAR-TAF:

METAR-TAF

Letiště :

Bejrút, Libanon

zeměpisná šířka: 33-49N, zeměpisná délka: 035-29E, výška: 29 m

Aktuální stav počasí

Zpráva byla vytvořena před 27 minutami, v 18:00 UTC
Jihozápadní vítr 10 kt
Teplota 27°C
Vlhkost vzduchu 66%
Tlak 1008 hPa
Viditelnost: 8000 m
Skoro jasno ve výšce 3000 ft

METAR: OLBA 201800Z 23010KT 8000 FEW030 27/20 Q1008 NOSIG

Čas: 21:27 (18:27 UTC)

Předpověď počasí

Zpráva byla vytvořena před 2 hodinami a 27 minutami, v 16:00 UTC
Předpověď platná od 20 v 18 UTC do 21 v 24 UTC
Západojihozápadní vítr 12 kt
Viditelnost: 8000 m
Polojasno ve výšce 2600 ft
Změna
od 20 v 22 UTC do 20 v 24 UTC
Jižní vítr 6 kt
Viditelnost 10 km a více
Skoro jasno ve výšce 3000 ft
Změna
od 21 v 06 UTC do 21 v 09 UTC
Jihozápadní vítr 16 kt
Viditelnost: 8000 m
Polojasno ve výšce 3000 ft

TAF: OLBA 201600Z 2018/2124 25012KT 8000 SCT026 BECMG 2022/2024 17006KT 9999 FEW030 BECMG 2106/2109 23016KT 8000 SCT030

Stav a předpovědi počasí z více než 4 000 letišť (zprávy METAR a TAF).

Červené a žluté tečky na mapě představují dostupné meteorologické stanice.

Když kurzor umístíte na tečku, zobrazí se název stanice.

Pak kliknutím zobrazíte stav a předpověď počasí.

Chcete-li změnit mapu, kliknutím na zelené tlačítko se znaménkem +mapu přiblížíte, kliknutím na zelené tlačítko se znaménkem – mapu oddálíte a kliknutím na zelené šipky přejdete na sousední mapy.


METAR-TAF: